createdAt,value
2023-02-06T00:01:52.254Z,-6.46
2023-02-06T00:04:55.238Z,-6.41
2023-02-06T00:07:58.056Z,-6.29
2023-02-06T00:11:08.891Z,-6.44
2023-02-06T00:14:11.644Z,-6.62
2023-02-06T00:17:14.676Z,-6.70
2023-02-06T00:20:17.522Z,-6.75
2023-02-06T00:23:20.625Z,-6.75
2023-02-06T00:26:24.636Z,-6.53
2023-02-06T00:29:27.789Z,-6.56
2023-02-06T00:32:30.679Z,-6.60
2023-02-06T00:35:33.902Z,-6.60
2023-02-06T00:38:38.283Z,-6.58
2023-02-06T00:41:41.476Z,-6.50
2023-02-06T00:44:44.166Z,-6.39
2023-02-06T00:47:47.157Z,-6.33
2023-02-06T00:50:50.705Z,-6.07
2023-02-06T00:53:53.735Z,-6.17
2023-02-06T00:56:56.475Z,-6.39
2023-02-06T00:59:59.455Z,-6.26
2023-02-06T01:03:02.911Z,-6.10
2023-02-06T01:06:06.124Z,-6.50
2023-02-06T01:09:08.880Z,-6.83
2023-02-06T01:12:11.863Z,-6.81
2023-02-06T01:15:14.841Z,-6.96
2023-02-06T01:18:18.030Z,-7.11
2023-02-06T01:21:23.893Z,-7.18
2023-02-06T01:24:26.897Z,-7.08
2023-02-06T01:27:29.585Z,-7.00
2023-02-06T01:30:33.789Z,-7.00
2023-02-06T01:33:37.063Z,-6.97
2023-02-06T01:36:40.155Z,-7.04
2023-02-06T01:39:42.900Z,-6.93
2023-02-06T01:42:45.873Z,-6.70
2023-02-06T01:45:50.473Z,-6.65
2023-02-06T01:48:54.864Z,-6.65
2023-02-06T01:52:20.160Z,-6.59
2023-02-06T01:55:24.027Z,-6.58
2023-02-06T01:58:31.500Z,-6.57
2023-02-06T02:01:34.892Z,-6.55
2023-02-06T02:04:37.988Z,-6.66
2023-02-06T02:08:09.335Z,-6.89
2023-02-06T02:11:17.890Z,-6.80
2023-02-06T02:14:20.688Z,-6.72
2023-02-06T02:17:57.898Z,-6.81
2023-02-06T02:21:34.972Z,-6.96
2023-02-06T02:24:59.391Z,-6.88
2023-02-06T02:28:20.453Z,-6.99
2023-02-06T02:31:45.801Z,-7.08
2023-02-06T02:35:28.906Z,-7.08
2023-02-06T02:39:03.883Z,-7.23
2023-02-06T02:42:20.048Z,-7.46
2023-02-06T02:45:39.813Z,-7.31
2023-02-06T02:48:46.062Z,-7.10
2023-02-06T02:51:50.671Z,-6.93
2023-02-06T02:54:53.693Z,-6.83
2023-02-06T02:58:07.759Z,-6.93
2023-02-06T03:01:16.416Z,-7.02
2023-02-06T03:04:35.338Z,-7.04
2023-02-06T03:07:53.967Z,-6.96
2023-02-06T03:11:05.881Z,-7.07
2023-02-06T03:14:34.969Z,-6.99
2023-02-06T03:18:09.313Z,-6.94
2023-02-06T03:21:16.845Z,-6.90
2023-02-06T03:24:32.056Z,-6.83
2023-02-06T03:27:37.162Z,-6.80
2023-02-06T03:30:43.995Z,-6.84
2023-02-06T03:34:01.781Z,-6.78
2023-02-06T03:37:04.852Z,-6.80
2023-02-06T03:40:08.975Z,-6.78
2023-02-06T03:43:18.854Z,-6.72
2023-02-06T03:46:23.779Z,-6.74
2023-02-06T03:49:31.354Z,-6.65
2023-02-06T03:52:40.720Z,-6.58
2023-02-06T03:55:46.268Z,-6.50
2023-02-06T03:58:49.087Z,-6.66
2023-02-06T04:01:55.452Z,-6.90
2023-02-06T04:04:58.539Z,-6.95
2023-02-06T04:08:01.599Z,-6.78
2023-02-06T04:11:04.902Z,-6.87
2023-02-06T04:14:07.662Z,-7.21
2023-02-06T04:17:11.746Z,-7.30
2023-02-06T04:20:14.507Z,-7.19
2023-02-06T04:23:17.809Z,-7.09
2023-02-06T04:26:20.538Z,-6.94
2023-02-06T04:29:23.537Z,-6.86
2023-02-06T04:32:26.278Z,-7.04
2023-02-06T04:35:29.390Z,-7.25
2023-02-06T04:38:32.041Z,-7.31
2023-02-06T04:41:35.388Z,-7.13
2023-02-06T04:44:38.724Z,-7.15
2023-02-06T04:47:41.876Z,-6.99
2023-02-06T04:50:44.644Z,-6.92
2023-02-06T04:53:48.093Z,-6.90
2023-02-06T04:56:51.229Z,-6.87
2023-02-06T04:59:54.250Z,-7.06
2023-02-06T05:02:57.090Z,-7.17
2023-02-06T05:06:01.573Z,-7.16
2023-02-06T05:09:05.208Z,-7.24
2023-02-06T05:12:08.539Z,-7.42
2023-02-06T05:15:11.260Z,-7.17
2023-02-06T05:18:15.476Z,-7.17
2023-02-06T05:21:18.694Z,-7.29
2023-02-06T05:24:21.667Z,-7.36
2023-02-06T05:27:25.740Z,-7.35
2023-02-06T05:30:29.105Z,-7.45
2023-02-06T05:33:32.134Z,-7.53
2023-02-06T05:36:35.226Z,-7.38
2023-02-06T05:39:37.932Z,-7.33
2023-02-06T05:42:41.155Z,-7.30
2023-02-06T05:45:43.839Z,-7.19
2023-02-06T05:48:47.012Z,-7.21
2023-02-06T05:51:49.672Z,-7.17
2023-02-06T05:54:52.926Z,-7.17
2023-02-06T05:57:55.649Z,-7.05
2023-02-06T06:00:58.956Z,-7.01
2023-02-06T06:04:02.222Z,-6.95
2023-02-06T06:07:05.235Z,-6.85
2023-02-06T06:10:09.374Z,-6.89
2023-02-06T06:13:12.200Z,-7.06
2023-02-06T06:16:15.663Z,-7.06
2023-02-06T06:19:18.835Z,-7.07
2023-02-06T06:22:22.296Z,-6.95
2023-02-06T06:25:24.967Z,-6.84
2023-02-06T06:28:28.157Z,-6.78
2023-02-06T06:31:30.926Z,-6.70
2023-02-06T06:34:34.143Z,-6.73
2023-02-06T06:37:37.129Z,-6.85
2023-02-06T06:40:41.345Z,-6.74
2023-02-06T06:43:44.406Z,-6.52
2023-02-06T06:46:47.356Z,-6.62
2023-02-06T06:49:50.180Z,-6.60
2023-02-06T06:52:53.176Z,-6.42
2023-02-06T06:55:56.099Z,-6.21
2023-02-06T06:59:00.186Z,-6.25
2023-02-06T07:02:03.229Z,-6.10
2023-02-06T07:05:07.574Z,-6.09
2023-02-06T07:08:10.440Z,-6.28
2023-02-06T07:11:14.974Z,-6.01
2023-02-06T07:14:17.797Z,-5.59
2023-02-06T07:17:20.978Z,-5.17
2023-02-06T07:20:23.862Z,-4.52
2023-02-06T07:23:27.396Z,-4.29
2023-02-06T07:26:30.482Z,-4.34
2023-02-06T07:29:33.649Z,-3.74
2023-02-06T07:32:37.144Z,-3.51
2023-02-06T07:35:43.055Z,-3.86
2023-02-06T07:38:45.792Z,-3.97
2023-02-06T07:41:51.090Z,-3.89
2023-02-06T07:44:55.438Z,-3.95
2023-02-06T07:47:58.453Z,-3.94
2023-02-06T07:51:06.291Z,-3.97
2023-02-06T07:54:09.860Z,-3.87
2023-02-06T07:57:12.632Z,-3.55
2023-02-06T08:00:16.342Z,-3.68
2023-02-06T08:03:21.056Z,-3.68
2023-02-06T08:06:25.147Z,-3.67
2023-02-06T08:09:28.310Z,-3.80
2023-02-06T08:12:31.280Z,-3.66
2023-02-06T08:15:34.673Z,-3.73
2023-02-06T08:18:38.556Z,-3.62
2023-02-06T08:21:41.672Z,-3.88
2023-02-06T08:24:45.578Z,-3.73
2023-02-06T08:27:53.430Z,-3.51
2023-02-06T08:30:56.206Z,-3.24
2023-02-06T08:33:59.536Z,-2.72
2023-02-06T08:37:02.251Z,-2.34
2023-02-06T08:40:06.142Z,-1.88
2023-02-06T08:43:08.917Z,-1.67
2023-02-06T08:46:11.958Z,-1.43
2023-02-06T08:49:20.429Z,-1.39
2023-02-06T08:52:23.560Z,-1.09
2023-02-06T08:55:26.318Z,-0.32
2023-02-06T08:58:29.425Z,-0.10
2023-02-06T09:01:34.211Z,0.03
2023-02-06T09:04:37.897Z,0.08
2023-02-06T09:07:40.721Z,0.07
2023-02-06T09:10:43.776Z,0.24
2023-02-06T09:13:49.343Z,0.65
2023-02-06T09:16:53.257Z,0.62
2023-02-06T09:19:56.105Z,0.33
2023-02-06T09:22:59.209Z,0.13
2023-02-06T09:26:02.062Z,-0.03
2023-02-06T09:29:08.035Z,-0.36
2023-02-06T09:32:10.802Z,-0.34
2023-02-06T09:35:13.955Z,-0.32
2023-02-06T09:38:16.728Z,-0.50
2023-02-06T09:41:29.552Z,-0.52
2023-02-06T09:44:49.301Z,-0.56
2023-02-06T09:48:14.653Z,-0.74
2023-02-06T09:51:40.159Z,-0.59
2023-02-06T09:55:10.532Z,-0.68
2023-02-06T09:58:49.452Z,-0.45
2023-02-06T10:02:19.146Z,0.04
2023-02-06T10:05:29.272Z,0.86
2023-02-06T10:08:40.992Z,0.94
2023-02-06T10:11:52.242Z,0.52
2023-02-06T10:15:01.822Z,1.01
2023-02-06T10:18:12.045Z,1.07
2023-02-06T10:21:17.739Z,1.12
2023-02-06T10:24:42.331Z,1.09
2023-02-06T10:27:48.027Z,0.77
2023-02-06T10:31:15.128Z,0.84
2023-02-06T10:34:42.135Z,1.54
2023-02-06T10:38:05.156Z,1.37
2023-02-06T10:41:21.492Z,1.40
2023-02-06T10:44:36.646Z,2.02
2023-02-06T10:47:55.389Z,2.00
2023-02-06T10:51:21.578Z,2.10
2023-02-06T10:54:31.648Z,1.69
2023-02-06T10:57:35.041Z,2.56
2023-02-06T11:00:39.443Z,2.09
2023-02-06T11:03:53.004Z,2.31
2023-02-06T11:07:00.884Z,2.56
2023-02-06T11:10:05.378Z,1.76
2023-02-06T11:13:14.891Z,2.07
2023-02-06T11:16:24.768Z,1.28
2023-02-06T11:19:31.175Z,2.80
2023-02-06T11:22:44.254Z,2.84
2023-02-06T11:26:10.832Z,3.39
2023-02-06T11:29:32.902Z,3.75
2023-02-06T11:32:41.387Z,4.57
2023-02-06T11:35:55.313Z,5.54
2023-02-06T11:39:01.019Z,5.74
2023-02-06T11:42:18.444Z,5.01
2023-02-06T11:45:30.551Z,4.01
2023-02-06T11:48:46.656Z,6.13
2023-02-06T11:51:51.726Z,5.92
2023-02-06T11:54:56.653Z,6.41
2023-02-06T11:58:04.864Z,6.24
2023-02-06T12:01:16.287Z,5.88
2023-02-06T12:04:47.343Z,5.53
2023-02-06T12:07:56.446Z,4.91
2023-02-06T12:11:05.954Z,3.61
2023-02-06T12:14:23.961Z,4.05
2023-02-06T12:17:35.259Z,4.97
2023-02-06T12:20:48.502Z,6.38
2023-02-06T12:24:05.035Z,5.66
2023-02-06T12:27:41.328Z,6.95
2023-02-06T12:30:57.874Z,6.51
2023-02-06T12:34:31.902Z,5.73
2023-02-06T12:37:44.400Z,6.32
2023-02-06T12:41:24.311Z,5.99
2023-02-06T12:44:42.245Z,5.84
2023-02-06T12:47:52.134Z,6.29
2023-02-06T12:51:10.289Z,6.63
2023-02-06T12:54:28.634Z,6.72
2023-02-06T12:57:32.753Z,6.42
2023-02-06T13:00:52.200Z,6.84
2023-02-06T13:03:58.491Z,6.67
2023-02-06T13:07:11.831Z,6.30
2023-02-06T13:10:24.967Z,6.37
2023-02-06T13:13:35.198Z,6.37
2023-02-06T13:17:16.867Z,6.22
2023-02-06T13:20:21.729Z,5.87
2023-02-06T13:23:24.796Z,6.05
2023-02-06T13:26:46.457Z,5.75
2023-02-06T13:29:52.841Z,6.28
2023-02-06T13:33:14.256Z,6.39
2023-02-06T13:36:24.518Z,6.36
2023-02-06T13:39:31.074Z,5.91
2023-02-06T13:42:54.630Z,6.48
2023-02-06T13:46:01.587Z,5.36
2023-02-06T13:49:23.631Z,4.89
2023-02-06T13:52:42.678Z,3.45
2023-02-06T13:55:57.375Z,3.03
2023-02-06T13:59:06.590Z,2.21
2023-02-06T14:02:14.766Z,1.75
2023-02-06T14:05:26.212Z,1.33
2023-02-06T14:08:57.680Z,0.68
2023-02-06T14:12:39.042Z,0.40
2023-02-06T14:16:18.029Z,0.22
2023-02-06T14:19:38.297Z,-0.06
2023-02-06T14:22:55.656Z,-0.13
2023-02-06T14:26:18.067Z,-0.28
2023-02-06T14:29:35.554Z,-0.39
2023-02-06T14:32:54.525Z,-0.43
2023-02-06T14:36:06.657Z,-0.44
2023-02-06T14:39:53.263Z,-0.48
2023-02-06T14:42:58.703Z,-0.65
2023-02-06T14:46:07.920Z,-0.72
2023-02-06T14:49:19.013Z,-0.90
2023-02-06T14:52:25.822Z,-1.08
2023-02-06T14:55:41.142Z,-1.01
2023-02-06T14:58:46.655Z,-1.11
2023-02-06T15:01:52.930Z,-1.24
2023-02-06T15:04:56.978Z,-1.19
2023-02-06T15:08:02.559Z,-1.32
2023-02-06T15:11:18.465Z,-1.43
2023-02-06T15:14:33.288Z,-1.51
2023-02-06T15:17:36.476Z,-1.51
2023-02-06T15:20:44.682Z,-1.61
2023-02-06T15:24:32.724Z,-1.68
2023-02-06T15:27:37.749Z,-1.66
2023-02-06T15:30:41.083Z,-1.76
2023-02-06T15:33:44.337Z,-1.82
2023-02-06T15:36:47.733Z,-1.87
2023-02-06T15:39:50.844Z,-1.95
2023-02-06T15:42:54.422Z,-2.01
2023-02-06T15:46:00.734Z,-2.11
2023-02-06T15:49:04.456Z,-2.19
2023-02-06T15:52:07.672Z,-2.25
2023-02-06T15:55:27.779Z,-2.32
2023-02-06T15:58:32.502Z,-2.43
2023-02-06T16:01:40.045Z,-2.47
2023-02-06T16:04:43.270Z,-2.57
2023-02-06T16:07:49.705Z,-2.65
2023-02-06T16:10:55.951Z,-2.69
2023-02-06T16:13:59.287Z,-2.72
2023-02-06T16:17:14.405Z,-2.73
2023-02-06T16:20:32.415Z,-2.75
2023-02-06T16:24:03.460Z,-2.72
2023-02-06T16:27:17.249Z,-2.67
2023-02-06T16:30:28.412Z,-2.64
2023-02-06T16:33:38.842Z,-2.60
2023-02-06T16:36:41.987Z,-2.60
2023-02-06T16:39:46.030Z,-2.41
2023-02-06T16:42:49.189Z,-2.28
2023-02-06T16:45:52.631Z,-2.33
2023-02-06T16:48:58.446Z,-2.35
2023-02-06T16:52:01.661Z,-2.46
2023-02-06T16:55:05.185Z,-2.38
2023-02-06T16:58:15.857Z,-2.34
2023-02-06T17:01:25.157Z,-2.50
2023-02-06T17:04:28.571Z,-2.60
2023-02-06T17:07:35.403Z,-2.69
2023-02-06T17:10:38.552Z,-2.49
2023-02-06T17:13:42.013Z,-2.56
2023-02-06T17:16:45.004Z,-2.56
2023-02-06T17:19:50.112Z,-2.49
2023-02-06T17:22:53.359Z,-2.53
2023-02-06T17:25:56.904Z,-2.46
2023-02-06T17:28:59.858Z,-2.52
2023-02-06T17:32:04.009Z,-2.43
2023-02-06T17:35:08.393Z,-2.49
2023-02-06T17:38:11.627Z,-2.72
2023-02-06T17:41:15.044Z,-2.89
2023-02-06T17:44:19.430Z,-3.02
2023-02-06T17:47:23.886Z,-2.92
2023-02-06T17:50:29.078Z,-3.04
2023-02-06T17:53:31.940Z,-3.16
2023-02-06T17:56:36.574Z,-3.31
2023-02-06T17:59:40.051Z,-3.36
2023-02-06T18:02:43.876Z,-3.43
2023-02-06T18:05:56.988Z,-3.53
2023-02-06T18:08:59.970Z,-3.55
2023-02-06T18:12:04.797Z,-3.45
2023-02-06T18:15:09.313Z,-3.70
2023-02-06T18:18:13.051Z,-3.91
2023-02-06T18:21:19.999Z,-3.88
2023-02-06T18:24:24.433Z,-3.86
2023-02-06T18:27:27.433Z,-3.90
2023-02-06T18:30:30.881Z,-3.91
2023-02-06T18:33:36.448Z,-3.94
2023-02-06T18:36:40.548Z,-4.04
2023-02-06T18:39:44.098Z,-4.01
2023-02-06T18:42:51.484Z,-4.29
2023-02-06T18:45:55.249Z,-4.20
2023-02-06T18:49:00.607Z,-4.57
2023-02-06T18:52:05.163Z,-4.75
2023-02-06T18:55:10.606Z,-4.78
2023-02-06T18:58:14.476Z,-4.83
2023-02-06T19:01:21.726Z,-4.80
2023-02-06T19:04:25.362Z,-4.77
2023-02-06T19:07:30.760Z,-4.68
2023-02-06T19:10:34.649Z,-4.62
2023-02-06T19:13:43.076Z,-4.74
2023-02-06T19:16:48.556Z,-4.78
2023-02-06T19:19:54.044Z,-4.76
2023-02-06T19:22:58.405Z,-4.72
2023-02-06T19:26:05.774Z,-4.94
2023-02-06T19:29:34.803Z,-5.00
2023-02-06T19:32:41.485Z,-4.84
2023-02-06T19:35:44.913Z,-4.75
2023-02-06T19:38:51.167Z,-4.76
2023-02-06T19:41:56.227Z,-4.74
2023-02-06T19:45:00.319Z,-4.84
2023-02-06T19:48:07.090Z,-5.01
2023-02-06T19:51:14.174Z,-5.02
2023-02-06T19:54:18.269Z,-5.24
2023-02-06T19:57:22.594Z,-5.07
2023-02-06T20:00:27.123Z,-5.21
2023-02-06T20:03:31.509Z,-5.42
2023-02-06T20:06:36.371Z,-5.56
2023-02-06T20:09:47.396Z,-5.52
2023-02-06T20:12:54.765Z,-5.36
2023-02-06T20:16:04.056Z,-5.53
2023-02-06T20:19:23.576Z,-5.57
2023-02-06T20:22:27.824Z,-5.47
2023-02-06T20:25:31.964Z,-5.54
2023-02-06T20:28:35.586Z,-5.60
2023-02-06T20:31:40.047Z,-5.38
2023-02-06T20:34:44.296Z,-5.18
2023-02-06T20:37:48.034Z,-5.05
2023-02-06T20:40:55.510Z,-4.96
2023-02-06T20:44:00.717Z,-5.10
2023-02-06T20:47:04.527Z,-5.51
2023-02-06T20:50:08.991Z,-5.80
2023-02-06T20:53:12.576Z,-5.91
2023-02-06T20:56:22.207Z,-5.85
2023-02-06T20:59:25.827Z,-5.74
2023-02-06T21:02:29.613Z,-5.71
2023-02-06T21:05:33.277Z,-5.81
2023-02-06T21:08:36.434Z,-5.93
2023-02-06T21:11:45.754Z,-6.25
2023-02-06T21:14:48.839Z,-6.07
2023-02-06T21:17:52.174Z,-6.09
2023-02-06T21:20:56.967Z,-6.09
2023-02-06T21:24:00.240Z,-6.20
2023-02-06T21:27:03.108Z,-6.39
2023-02-06T21:30:06.937Z,-6.08
2023-02-06T21:33:09.725Z,-6.04
2023-02-06T21:36:12.928Z,-6.27
2023-02-06T21:39:22.279Z,-6.44
2023-02-06T21:42:27.645Z,-6.45
2023-02-06T21:45:30.413Z,-6.43
2023-02-06T21:48:34.437Z,-6.48
2023-02-06T21:51:37.563Z,-6.36
2023-02-06T21:54:40.604Z,-6.30
2023-02-06T21:57:43.438Z,-6.28
2023-02-06T22:00:47.660Z,-6.45
2023-02-06T22:03:51.456Z,-6.36
2023-02-06T22:06:54.134Z,-6.41
2023-02-06T22:09:57.165Z,-6.22
2023-02-06T22:12:59.930Z,-6.07
2023-02-06T22:16:02.975Z,-6.13
2023-02-06T22:19:07.077Z,-6.22
2023-02-06T22:22:10.124Z,-6.28
2023-02-06T22:25:12.941Z,-6.42
2023-02-06T22:28:16.234Z,-6.53
2023-02-06T22:31:22.549Z,-6.79
2023-02-06T22:34:25.793Z,-6.86
2023-02-06T22:37:31.362Z,-6.98
2023-02-06T22:40:34.350Z,-6.80
2023-02-06T22:43:38.736Z,-6.70
2023-02-06T22:46:42.640Z,-6.59
2023-02-06T22:49:45.553Z,-6.53
2023-02-06T22:53:07.338Z,-6.43
2023-02-06T22:56:31.260Z,-6.57
2023-02-06T22:59:34.448Z,-6.59
2023-02-06T23:02:38.885Z,-6.94
2023-02-06T23:05:41.937Z,-6.82
2023-02-06T23:08:45.019Z,-6.61
2023-02-06T23:11:48.546Z,-6.42
2023-02-06T23:14:51.264Z,-6.55
2023-02-06T23:17:54.309Z,-6.46
2023-02-06T23:20:59.700Z,-6.49
2023-02-06T23:24:03.762Z,-6.72
2023-02-06T23:27:06.418Z,-6.71
2023-02-06T23:30:10.144Z,-6.78
2023-02-06T23:33:13.153Z,-6.90
2023-02-06T23:36:18.065Z,-6.99
2023-02-06T23:39:21.178Z,-6.95
2023-02-06T23:42:24.290Z,-6.94
2023-02-06T23:45:28.085Z,-6.91
2023-02-06T23:48:31.378Z,-6.93
2023-02-06T23:51:35.274Z,-6.96
2023-02-06T23:54:38.436Z,-6.57
2023-02-06T23:57:41.929Z,-6.65
